sensor_id;sensor_type;location;lat;lon;timestamp;P1;durP1;ratioP1;P2;durP2;ratioP2
22060;SDS011;11194;48.092;-1.382;2023-01-09T00:01:00;16.58;;;4.10;;
22060;SDS011;11194;48.092;-1.382;2023-01-09T00:03:27;14.52;;;4.03;;
22060;SDS011;11194;48.092;-1.382;2023-01-09T00:05:53;12.65;;;3.33;;
22060;SDS011;11194;48.092;-1.382;2023-01-09T00:08:19;16.35;;;4.18;;
22060;SDS011;11194;48.092;-1.382;2023-01-09T00:10:47;13.60;;;4.53;;
22060;SDS011;11194;48.092;-1.382;2023-01-09T00:13:13;13.25;;;4.07;;
22060;SDS011;11194;48.092;-1.382;2023-01-09T00:15:41;16.23;;;5.78;;
22060;SDS011;11194;48.092;-1.382;2023-01-09T00:18:08;16.88;;;5.35;;
22060;SDS011;11194;48.092;-1.382;2023-01-09T00:20:34;12.07;;;3.45;;
22060;SDS011;11194;48.092;-1.382;2023-01-09T00:23:00;12.23;;;4.32;;
22060;SDS011;11194;48.092;-1.382;2023-01-09T00:25:26;11.70;;;2.47;;
22060;SDS011;11194;48.092;-1.382;2023-01-09T00:27:52;7.13;;;3.35;;
22060;SDS011;11194;48.092;-1.382;2023-01-09T00:30:18;12.38;;;4.95;;
22060;SDS011;11194;48.092;-1.382;2023-01-09T00:32:45;9.57;;;4.25;;
22060;SDS011;11194;48.092;-1.382;2023-01-09T00:35:13;13.77;;;5.55;;
22060;SDS011;11194;48.092;-1.382;2023-01-09T00:37:40;10.60;;;4.68;;
22060;SDS011;11194;48.092;-1.382;2023-01-09T00:40:06;12.73;;;6.32;;
22060;SDS011;11194;48.092;-1.382;2023-01-09T00:42:32;13.63;;;4.90;;
22060;SDS011;11194;48.092;-1.382;2023-01-09T00:45:01;11.45;;;4.95;;
22060;SDS011;11194;48.092;-1.382;2023-01-09T00:47:30;7.07;;;2.88;;
22060;SDS011;11194;48.092;-1.382;2023-01-09T00:50:02;6.70;;;4.28;;
22060;SDS011;11194;48.092;-1.382;2023-01-09T00:52:29;9.13;;;5.18;;
22060;SDS011;11194;48.092;-1.382;2023-01-09T00:54:56;10.48;;;5.75;;
22060;SDS011;11194;48.092;-1.382;2023-01-09T00:57:22;11.80;;;4.45;;
22060;SDS011;11194;48.092;-1.382;2023-01-09T00:59:48;8.43;;;3.10;;
22060;SDS011;11194;48.092;-1.382;2023-01-09T01:02:14;4.88;;;3.17;;
22060;SDS011;11194;48.092;-1.382;2023-01-09T01:04:40;6.55;;;3.30;;
22060;SDS011;11194;48.092;-1.382;2023-01-09T01:07:25;10.20;;;2.80;;
22060;SDS011;11194;48.092;-1.382;2023-01-09T01:10:22;6.15;;;3.25;;
22060;SDS011;11194;48.092;-1.382;2023-01-09T01:12:49;7.90;;;2.90;;
22060;SDS011;11194;48.092;-1.382;2023-01-09T01:15:15;7.10;;;2.10;;
22060;SDS011;11194;48.092;-1.382;2023-01-09T01:17:42;6.32;;;2.80;;
22060;SDS011;11194;48.092;-1.382;2023-01-09T01:20:09;5.35;;;2.00;;
22060;SDS011;11194;48.092;-1.382;2023-01-09T01:22:36;4.05;;;1.38;;
22060;SDS011;11194;48.092;-1.382;2023-01-09T01:25:03;4.65;;;2.03;;
22060;SDS011;11194;48.092;-1.382;2023-01-09T01:27:29;1.95;;;1.65;;
22060;SDS011;11194;48.092;-1.382;2023-01-09T01:29:55;3.08;;;1.58;;
22060;SDS011;11194;48.092;-1.382;2023-01-09T01:32:21;1.92;;;1.50;;
22060;SDS011;11194;48.092;-1.382;2023-01-09T01:34:47;1.58;;;1.30;;
22060;SDS011;11194;48.092;-1.382;2023-01-09T01:37:14;3.53;;;2.10;;
22060;SDS011;11194;48.092;-1.382;2023-01-09T01:39:40;2.50;;;2.08;;
22060;SDS011;11194;48.092;-1.382;2023-01-09T01:42:06;3.42;;;2.83;;
22060;SDS011;11194;48.092;-1.382;2023-01-09T01:47:17;4.55;;;2.80;;
22060;SDS011;11194;48.092;-1.382;2023-01-09T01:49:44;3.35;;;3.15;;
22060;SDS011;11194;48.092;-1.382;2023-01-09T01:52:10;4.28;;;2.78;;
22060;SDS011;11194;48.092;-1.382;2023-01-09T01:54:37;3.72;;;2.70;;
22060;SDS011;11194;48.092;-1.382;2023-01-09T01:57:03;2.47;;;2.28;;
22060;SDS011;11194;48.092;-1.382;2023-01-09T01:59:40;5.35;;;2.97;;
22060;SDS011;11194;48.092;-1.382;2023-01-09T02:02:08;3.38;;;2.67;;
22060;SDS011;11194;48.092;-1.382;2023-01-09T02:04:35;2.50;;;2.33;;
22060;SDS011;11194;48.092;-1.382;2023-01-09T02:07:06;4.93;;;3.28;;
22060;SDS011;11194;48.092;-1.382;2023-01-09T02:09:33;2.35;;;2.10;;
22060;SDS011;11194;48.092;-1.382;2023-01-09T02:11:59;2.92;;;2.40;;
22060;SDS011;11194;48.092;-1.382;2023-01-09T02:14:27;2.90;;;2.13;;
22060;SDS011;11194;48.092;-1.382;2023-01-09T02:19:42;2.50;;;1.27;;
22060;SDS011;11194;48.092;-1.382;2023-01-09T02:22:21;3.58;;;1.10;;
22060;SDS011;11194;48.092;-1.382;2023-01-09T02:32:49;3.70;;;1.30;;
22060;SDS011;11194;48.092;-1.382;2023-01-09T02:43:05;5.20;;;1.52;;
22060;SDS011;11194;48.092;-1.382;2023-01-09T02:45:32;6.47;;;1.80;;
22060;SDS011;11194;48.092;-1.382;2023-01-09T02:47:58;3.38;;;1.63;;
22060;SDS011;11194;48.092;-1.382;2023-01-09T02:55:42;5.75;;;2.03;;
22060;SDS011;11194;48.092;-1.382;2023-01-09T03:06:19;3.63;;;1.02;;
22060;SDS011;11194;48.092;-1.382;2023-01-09T03:08:48;5.53;;;1.35;;
22060;SDS011;11194;48.092;-1.382;2023-01-09T03:11:15;3.78;;;1.10;;
22060;SDS011;11194;48.092;-1.382;2023-01-09T03:13:46;5.15;;;1.42;;
22060;SDS011;11194;48.092;-1.382;2023-01-09T03:16:22;9.55;;;1.88;;
22060;SDS011;11194;48.092;-1.382;2023-01-09T03:18:49;7.20;;;1.25;;
22060;SDS011;11194;48.092;-1.382;2023-01-09T03:21:16;4.85;;;1.58;;
22060;SDS011;11194;48.092;-1.382;2023-01-09T03:23:47;7.13;;;1.40;;
22060;SDS011;11194;48.092;-1.382;2023-01-09T03:26:13;4.03;;;1.63;;
22060;SDS011;11194;48.092;-1.382;2023-01-09T03:28:39;7.45;;;1.85;;
22060;SDS011;11194;48.092;-1.382;2023-01-09T03:31:06;5.00;;;1.85;;
22060;SDS011;11194;48.092;-1.382;2023-01-09T03:33:32;6.47;;;1.60;;
22060;SDS011;11194;48.092;-1.382;2023-01-09T03:35:58;7.60;;;1.50;;
22060;SDS011;11194;48.092;-1.382;2023-01-09T03:38:24;3.75;;;1.50;;
22060;SDS011;11194;48.092;-1.382;2023-01-09T03:40:50;6.13;;;1.50;;
22060;SDS011;11194;48.092;-1.382;2023-01-09T03:43:16;8.20;;;2.00;;
22060;SDS011;11194;48.092;-1.382;2023-01-09T03:45:42;5.13;;;1.60;;
22060;SDS011;11194;48.092;-1.382;2023-01-09T03:48:09;5.65;;;1.40;;
22060;SDS011;11194;48.092;-1.382;2023-01-09T03:50:35;5.45;;;1.50;;
22060;SDS011;11194;48.092;-1.382;2023-01-09T03:53:01;5.75;;;1.77;;
22060;SDS011;11194;48.092;-1.382;2023-01-09T03:55:27;6.72;;;2.03;;
22060;SDS011;11194;48.092;-1.382;2023-01-09T03:57:53;7.57;;;1.67;;
22060;SDS011;11194;48.092;-1.382;2023-01-09T04:00:19;5.15;;;1.60;;
22060;SDS011;11194;48.092;-1.382;2023-01-09T04:02:46;4.88;;;1.65;;
22060;SDS011;11194;48.092;-1.382;2023-01-09T04:05:12;4.43;;;1.45;;
22060;SDS011;11194;48.092;-1.382;2023-01-09T04:07:38;6.25;;;2.03;;
22060;SDS011;11194;48.092;-1.382;2023-01-09T04:10:04;4.30;;;1.65;;
22060;SDS011;11194;48.092;-1.382;2023-01-09T04:12:30;7.32;;;2.08;;
22060;SDS011;11194;48.092;-1.382;2023-01-09T04:14:56;10.27;;;2.28;;
22060;SDS011;11194;48.092;-1.382;2023-01-09T04:17:23;7.47;;;2.03;;
22060;SDS011;11194;48.092;-1.382;2023-01-09T04:19:49;6.80;;;1.67;;
22060;SDS011;11194;48.092;-1.382;2023-01-09T04:22:15;10.93;;;1.70;;
22060;SDS011;11194;48.092;-1.382;2023-01-09T04:24:41;7.80;;;2.13;;
22060;SDS011;11194;48.092;-1.382;2023-01-09T04:27:07;5.90;;;1.85;;
22060;SDS011;11194;48.092;-1.382;2023-01-09T04:29:33;9.10;;;1.90;;
22060;SDS011;11194;48.092;-1.382;2023-01-09T04:31:59;5.85;;;1.88;;
22060;SDS011;11194;48.092;-1.382;2023-01-09T04:34:25;6.38;;;1.80;;
22060;SDS011;11194;48.092;-1.382;2023-01-09T04:36:51;5.20;;;1.67;;
22060;SDS011;11194;48.092;-1.382;2023-01-09T04:39:18;3.08;;;1.33;;
22060;SDS011;11194;48.092;-1.382;2023-01-09T04:41:45;6.22;;;1.65;;
22060;SDS011;11194;48.092;-1.382;2023-01-09T04:44:14;5.50;;;1.88;;
22060;SDS011;11194;48.092;-1.382;2023-01-09T04:46:40;5.10;;;1.30;;
22060;SDS011;11194;48.092;-1.382;2023-01-09T04:49:06;4.38;;;1.48;;
22060;SDS011;11194;48.092;-1.382;2023-01-09T04:51:32;5.68;;;1.45;;
22060;SDS011;11194;48.092;-1.382;2023-01-09T04:53:58;4.40;;;1.25;;
22060;SDS011;11194;48.092;-1.382;2023-01-09T04:56:25;5.95;;;1.67;;
22060;SDS011;11194;48.092;-1.382;2023-01-09T04:58:51;8.43;;;1.67;;
22060;SDS011;11194;48.092;-1.382;2023-01-09T05:01:17;4.18;;;1.55;;
22060;SDS011;11194;48.092;-1.382;2023-01-09T05:03:43;3.97;;;1.35;;
22060;SDS011;11194;48.092;-1.382;2023-01-09T05:06:09;5.63;;;1.85;;
22060;SDS011;11194;48.092;-1.382;2023-01-09T05:08:35;3.33;;;1.15;;
22060;SDS011;11194;48.092;-1.382;2023-01-09T05:11:01;4.53;;;0.98;;
22060;SDS011;11194;48.092;-1.382;2023-01-09T05:13:27;6.82;;;1.60;;
22060;SDS011;11194;48.092;-1.382;2023-01-09T05:15:53;4.65;;;1.35;;
22060;SDS011;11194;48.092;-1.382;2023-01-09T05:18:19;4.97;;;1.23;;
22060;SDS011;11194;48.092;-1.382;2023-01-09T05:20:45;5.60;;;1.80;;
22060;SDS011;11194;48.092;-1.382;2023-01-09T05:23:11;6.47;;;1.20;;
22060;SDS011;11194;48.092;-1.382;2023-01-09T05:25:37;5.75;;;1.38;;
22060;SDS011;11194;48.092;-1.382;2023-01-09T05:28:03;2.55;;;1.23;;
22060;SDS011;11194;48.092;-1.382;2023-01-09T05:30:29;6.35;;;1.55;;
22060;SDS011;11194;48.092;-1.382;2023-01-09T05:32:55;4.65;;;1.83;;
22060;SDS011;11194;48.092;-1.382;2023-01-09T05:35:22;3.70;;;1.17;;
22060;SDS011;11194;48.092;-1.382;2023-01-09T05:37:48;5.85;;;1.40;;
22060;SDS011;11194;48.092;-1.382;2023-01-09T05:40:14;8.38;;;2.05;;
22060;SDS011;11194;48.092;-1.382;2023-01-09T05:42:41;6.30;;;1.63;;
22060;SDS011;11194;48.092;-1.382;2023-01-09T05:45:07;4.38;;;1.60;;
22060;SDS011;11194;48.092;-1.382;2023-01-09T05:47:33;5.25;;;2.00;;
22060;SDS011;11194;48.092;-1.382;2023-01-09T05:49:59;7.13;;;1.75;;
22060;SDS011;11194;48.092;-1.382;2023-01-09T05:52:25;8.80;;;1.63;;
22060;SDS011;11194;48.092;-1.382;2023-01-09T05:54:51;5.85;;;1.63;;
22060;SDS011;11194;48.092;-1.382;2023-01-09T05:57:17;4.32;;;1.48;;
22060;SDS011;11194;48.092;-1.382;2023-01-09T05:59:44;4.93;;;1.52;;
22060;SDS011;11194;48.092;-1.382;2023-01-09T06:02:10;5.38;;;1.60;;
22060;SDS011;11194;48.092;-1.382;2023-01-09T06:04:36;6.80;;;1.63;;
22060;SDS011;11194;48.092;-1.382;2023-01-09T06:07:02;5.70;;;1.55;;
22060;SDS011;11194;48.092;-1.382;2023-01-09T06:09:28;8.60;;;2.03;;
22060;SDS011;11194;48.092;-1.382;2023-01-09T06:11:55;6.63;;;1.80;;
22060;SDS011;11194;48.092;-1.382;2023-01-09T06:14:21;8.88;;;1.75;;
22060;SDS011;11194;48.092;-1.382;2023-01-09T06:16:47;4.95;;;1.92;;
22060;SDS011;11194;48.092;-1.382;2023-01-09T06:19:13;6.22;;;1.80;;
22060;SDS011;11194;48.092;-1.382;2023-01-09T06:21:39;7.78;;;1.80;;
22060;SDS011;11194;48.092;-1.382;2023-01-09T06:24:06;7.07;;;2.13;;
22060;SDS011;11194;48.092;-1.382;2023-01-09T06:26:32;6.88;;;2.15;;
22060;SDS011;11194;48.092;-1.382;2023-01-09T06:28:58;9.10;;;1.85;;
22060;SDS011;11194;48.092;-1.382;2023-01-09T06:31:25;5.90;;;1.73;;
22060;SDS011;11194;48.092;-1.382;2023-01-09T06:33:52;6.78;;;1.83;;
22060;SDS011;11194;48.092;-1.382;2023-01-09T06:36:18;7.22;;;2.08;;
22060;SDS011;11194;48.092;-1.382;2023-01-09T06:38:44;6.88;;;1.83;;
22060;SDS011;11194;48.092;-1.382;2023-01-09T06:41:10;7.15;;;1.85;;
22060;SDS011;11194;48.092;-1.382;2023-01-09T06:43:36;6.20;;;1.73;;
22060;SDS011;11194;48.092;-1.382;2023-01-09T06:46:03;4.75;;;1.67;;
22060;SDS011;11194;48.092;-1.382;2023-01-09T06:48:32;5.45;;;1.73;;
22060;SDS011;11194;48.092;-1.382;2023-01-09T06:50:58;5.85;;;1.80;;
22060;SDS011;11194;48.092;-1.382;2023-01-09T06:53:24;9.60;;;2.45;;
22060;SDS011;11194;48.092;-1.382;2023-01-09T06:55:50;12.20;;;2.05;;
22060;SDS011;11194;48.092;-1.382;2023-01-09T06:58:16;4.63;;;1.98;;
22060;SDS011;11194;48.092;-1.382;2023-01-09T07:00:43;6.25;;;1.65;;
22060;SDS011;11194;48.092;-1.382;2023-01-09T07:03:09;4.38;;;1.98;;
22060;SDS011;11194;48.092;-1.382;2023-01-09T07:05:40;5.60;;;1.63;;
22060;SDS011;11194;48.092;-1.382;2023-01-09T07:08:07;3.40;;;1.33;;
22060;SDS011;11194;48.092;-1.382;2023-01-09T07:10:33;5.78;;;2.03;;
22060;SDS011;11194;48.092;-1.382;2023-01-09T07:12:59;6.05;;;1.73;;
22060;SDS011;11194;48.092;-1.382;2023-01-09T07:15:25;4.97;;;2.30;;
22060;SDS011;11194;48.092;-1.382;2023-01-09T07:17:51;2.92;;;1.70;;
22060;SDS011;11194;48.092;-1.382;2023-01-09T07:20:18;6.70;;;1.92;;
22060;SDS011;11194;48.092;-1.382;2023-01-09T07:22:44;8.95;;;1.90;;
22060;SDS011;11194;48.092;-1.382;2023-01-09T07:25:11;5.80;;;1.60;;
22060;SDS011;11194;48.092;-1.382;2023-01-09T07:27:37;7.05;;;2.00;;
22060;SDS011;11194;48.092;-1.382;2023-01-09T07:30:03;5.10;;;1.60;;
22060;SDS011;11194;48.092;-1.382;2023-01-09T07:32:30;3.15;;;1.65;;
22060;SDS011;11194;48.092;-1.382;2023-01-09T07:34:56;5.50;;;2.08;;
22060;SDS011;11194;48.092;-1.382;2023-01-09T07:37:22;5.72;;;1.80;;
22060;SDS011;11194;48.092;-1.382;2023-01-09T07:39:49;4.78;;;1.58;;
22060;SDS011;11194;48.092;-1.382;2023-01-09T07:42:15;4.53;;;2.10;;
22060;SDS011;11194;48.092;-1.382;2023-01-09T07:44:41;4.15;;;1.92;;
22060;SDS011;11194;48.092;-1.382;2023-01-09T07:47:07;7.43;;;2.00;;
22060;SDS011;11194;48.092;-1.382;2023-01-09T07:49:33;4.63;;;2.05;;
22060;SDS011;11194;48.092;-1.382;2023-01-09T07:52:00;3.53;;;1.50;;
22060;SDS011;11194;48.092;-1.382;2023-01-09T07:54:26;7.15;;;2.17;;
22060;SDS011;11194;48.092;-1.382;2023-01-09T07:56:52;5.70;;;2.00;;
22060;SDS011;11194;48.092;-1.382;2023-01-09T07:59:18;5.07;;;1.90;;
22060;SDS011;11194;48.092;-1.382;2023-01-09T08:01:44;8.27;;;1.67;;
22060;SDS011;11194;48.092;-1.382;2023-01-09T08:04:11;4.63;;;1.90;;
22060;SDS011;11194;48.092;-1.382;2023-01-09T08:06:37;7.32;;;1.60;;
22060;SDS011;11194;48.092;-1.382;2023-01-09T08:09:03;5.85;;;2.10;;
22060;SDS011;11194;48.092;-1.382;2023-01-09T08:11:29;5.72;;;2.28;;
22060;SDS011;11194;48.092;-1.382;2023-01-09T08:13:56;6.97;;;2.38;;
22060;SDS011;11194;48.092;-1.382;2023-01-09T08:16:22;8.23;;;1.90;;
22060;SDS011;11194;48.092;-1.382;2023-01-09T08:18:48;4.47;;;2.42;;
22060;SDS011;11194;48.092;-1.382;2023-01-09T08:21:14;5.47;;;1.73;;
22060;SDS011;11194;48.092;-1.382;2023-01-09T08:23:40;7.38;;;1.80;;
22060;SDS011;11194;48.092;-1.382;2023-01-09T08:26:06;5.97;;;1.92;;
22060;SDS011;11194;48.092;-1.382;2023-01-09T08:28:32;8.40;;;2.22;;
22060;SDS011;11194;48.092;-1.382;2023-01-09T08:30:58;5.15;;;1.50;;
22060;SDS011;11194;48.092;-1.382;2023-01-09T08:33:24;7.72;;;1.73;;
22060;SDS011;11194;48.092;-1.382;2023-01-09T08:35:51;4.25;;;1.65;;
22060;SDS011;11194;48.092;-1.382;2023-01-09T08:38:18;7.40;;;1.88;;
22060;SDS011;11194;48.092;-1.382;2023-01-09T08:40:46;6.68;;;1.42;;
22060;SDS011;11194;48.092;-1.382;2023-01-09T08:43:12;5.30;;;1.65;;
22060;SDS011;11194;48.092;-1.382;2023-01-09T08:45:57;5.93;;;2.17;;
22060;SDS011;11194;48.092;-1.382;2023-01-09T08:48:42;5.28;;;1.70;;
22060;SDS011;11194;48.092;-1.382;2023-01-09T08:51:08;4.78;;;1.85;;
22060;SDS011;11194;48.092;-1.382;2023-01-09T08:53:34;6.35;;;2.05;;
22060;SDS011;11194;48.092;-1.382;2023-01-09T08:56:01;6.95;;;1.80;;
22060;SDS011;11194;48.092;-1.382;2023-01-09T08:58:28;9.73;;;1.67;;
22060;SDS011;11194;48.092;-1.382;2023-01-09T09:00:54;6.80;;;2.05;;
22060;SDS011;11194;48.092;-1.382;2023-01-09T09:03:20;6.75;;;1.40;;
22060;SDS011;11194;48.092;-1.382;2023-01-09T09:05:47;6.10;;;1.40;;
22060;SDS011;11194;48.092;-1.382;2023-01-09T09:08:13;2.75;;;1.40;;
22060;SDS011;11194;48.092;-1.382;2023-01-09T09:10:40;4.50;;;1.48;;
22060;SDS011;11194;48.092;-1.382;2023-01-09T09:13:06;9.07;;;1.60;;
22060;SDS011;11194;48.092;-1.382;2023-01-09T09:15:33;4.03;;;1.55;;
22060;SDS011;11194;48.092;-1.382;2023-01-09T09:18:00;4.65;;;1.40;;
22060;SDS011;11194;48.092;-1.382;2023-01-09T09:20:30;4.63;;;1.58;;
22060;SDS011;11194;48.092;-1.382;2023-01-09T09:22:56;6.57;;;1.20;;
22060;SDS011;11194;48.092;-1.382;2023-01-09T09:25:23;3.10;;;1.23;;
22060;SDS011;11194;48.092;-1.382;2023-01-09T09:27:49;6.75;;;1.77;;
22060;SDS011;11194;48.092;-1.382;2023-01-09T09:30:16;11.38;;;1.67;;
22060;SDS011;11194;48.092;-1.382;2023-01-09T09:32:42;4.78;;;1.20;;
22060;SDS011;11194;48.092;-1.382;2023-01-09T09:35:08;3.30;;;1.25;;
22060;SDS011;11194;48.092;-1.382;2023-01-09T09:37:35;5.03;;;1.30;;
22060;SDS011;11194;48.092;-1.382;2023-01-09T09:40:01;4.53;;;1.55;;
22060;SDS011;11194;48.092;-1.382;2023-01-09T09:45:25;4.93;;;1.38;;
22060;SDS011;11194;48.092;-1.382;2023-01-09T09:48:36;3.97;;;1.23;;
22060;SDS011;11194;48.092;-1.382;2023-01-09T09:53:31;5.40;;;1.20;;
22060;SDS011;11194;48.092;-1.382;2023-01-09T09:55:58;7.43;;;1.63;;
22060;SDS011;11194;48.092;-1.382;2023-01-09T09:58:28;5.82;;;1.10;;
22060;SDS011;11194;48.092;-1.382;2023-01-09T10:00:56;3.58;;;1.70;;
22060;SDS011;11194;48.092;-1.382;2023-01-09T10:03:30;4.75;;;1.17;;
22060;SDS011;11194;48.092;-1.382;2023-01-09T10:05:58;3.72;;;1.10;;
22060;SDS011;11194;48.092;-1.382;2023-01-09T10:11:03;6.03;;;1.17;;
22060;SDS011;11194;48.092;-1.382;2023-01-09T10:13:29;5.53;;;1.40;;
22060;SDS011;11194;48.092;-1.382;2023-01-09T10:27:08;6.13;;;1.55;;
22060;SDS011;11194;48.092;-1.382;2023-01-09T10:34:46;7.05;;;1.70;;
22060;SDS011;11194;48.092;-1.382;2023-01-09T10:37:16;6.50;;;1.67;;
22060;SDS011;11194;48.092;-1.382;2023-01-09T10:39:45;6.72;;;1.73;;
22060;SDS011;11194;48.092;-1.382;2023-01-09T10:47:28;10.25;;;2.13;;
22060;SDS011;11194;48.092;-1.382;2023-01-09T10:49:55;5.47;;;2.05;;
22060;SDS011;11194;48.092;-1.382;2023-01-09T10:52:24;6.10;;;1.70;;
22060;SDS011;11194;48.092;-1.382;2023-01-09T10:54:57;4.45;;;1.45;;
22060;SDS011;11194;48.092;-1.382;2023-01-09T10:57:29;3.80;;;1.55;;
22060;SDS011;11194;48.092;-1.382;2023-01-09T10:59:56;4.55;;;1.40;;
22060;SDS011;11194;48.092;-1.382;2023-01-09T11:02:30;5.90;;;1.42;;
22060;SDS011;11194;48.092;-1.382;2023-01-09T11:04:56;6.93;;;1.85;;
22060;SDS011;11194;48.092;-1.382;2023-01-09T11:07:24;5.20;;;1.45;;
22060;SDS011;11194;48.092;-1.382;2023-01-09T11:12:30;5.47;;;1.60;;
22060;SDS011;11194;48.092;-1.382;2023-01-09T11:17:44;3.13;;;1.55;;
22060;SDS011;11194;48.092;-1.382;2023-01-09T11:22:41;6.15;;;1.50;;
22060;SDS011;11194;48.092;-1.382;2023-01-09T11:25:10;7.57;;;1.55;;
22060;SDS011;11194;48.092;-1.382;2023-01-09T11:27:37;6.53;;;1.60;;
22060;SDS011;11194;48.092;-1.382;2023-01-09T11:32:42;8.93;;;1.88;;
22060;SDS011;11194;48.092;-1.382;2023-01-09T11:35:18;7.30;;;1.70;;
22060;SDS011;11194;48.092;-1.382;2023-01-09T11:37:45;4.13;;;1.42;;
22060;SDS011;11194;48.092;-1.382;2023-01-09T11:40:16;8.50;;;1.67;;
22060;SDS011;11194;48.092;-1.382;2023-01-09T11:42:59;6.18;;;1.52;;
22060;SDS011;11194;48.092;-1.382;2023-01-09T11:45:29;6.75;;;1.45;;
22060;SDS011;11194;48.092;-1.382;2023-01-09T11:47:56;6.55;;;2.22;;
22060;SDS011;11194;48.092;-1.382;2023-01-09T11:50:27;4.38;;;1.55;;
22060;SDS011;11194;48.092;-1.382;2023-01-09T11:55:38;6.43;;;1.42;;
22060;SDS011;11194;48.092;-1.382;2023-01-09T11:58:04;5.90;;;1.50;;
22060;SDS011;11194;48.092;-1.382;2023-01-09T12:00:33;6.90;;;1.80;;
22060;SDS011;11194;48.092;-1.382;2023-01-09T12:08:11;8.40;;;1.70;;
22060;SDS011;11194;48.092;-1.382;2023-01-09T12:13:45;5.55;;;1.50;;
22060;SDS011;11194;48.092;-1.382;2023-01-09T12:47:54;3.55;;;0.70;;
22060;SDS011;11194;48.092;-1.382;2023-01-09T12:50:34;4.07;;;0.65;;
22060;SDS011;11194;48.092;-1.382;2023-01-09T12:55:32;1.45;;;0.50;;
22060;SDS011;11194;48.092;-1.382;2023-01-09T12:58:00;2.22;;;0.75;;
22060;SDS011;11194;48.092;-1.382;2023-01-09T13:00:39;1.92;;;0.90;;
22060;SDS011;11194;48.092;-1.382;2023-01-09T13:05:51;4.72;;;1.10;;
22060;SDS011;11194;48.092;-1.382;2023-01-09T13:08:23;2.70;;;0.93;;
22060;SDS011;11194;48.092;-1.382;2023-01-09T13:10:51;3.40;;;1.20;;
22060;SDS011;11194;48.092;-1.382;2023-01-09T13:13:29;7.90;;;1.30;;
22060;SDS011;11194;48.092;-1.382;2023-01-09T13:16:05;6.75;;;1.10;;
22060;SDS011;11194;48.092;-1.382;2023-01-09T13:18:38;7.72;;;1.40;;
22060;SDS011;11194;48.092;-1.382;2023-01-09T13:21:06;5.07;;;1.40;;
22060;SDS011;11194;48.092;-1.382;2023-01-09T13:23:51;6.78;;;1.23;;
22060;SDS011;11194;48.092;-1.382;2023-01-09T13:26:29;6.90;;;1.63;;
22060;SDS011;11194;48.092;-1.382;2023-01-09T13:28:56;7.82;;;2.08;;
22060;SDS011;11194;48.092;-1.382;2023-01-09T13:34:14;4.28;;;1.15;;
22060;SDS011;11194;48.092;-1.382;2023-01-09T13:36:45;4.63;;;0.93;;
22060;SDS011;11194;48.092;-1.382;2023-01-09T13:39:18;2.58;;;0.73;;
22060;SDS011;11194;48.092;-1.382;2023-01-09T13:41:46;3.03;;;1.15;;
22060;SDS011;11194;48.092;-1.382;2023-01-09T13:44:31;3.30;;;1.10;;
22060;SDS011;11194;48.092;-1.382;2023-01-09T13:46:58;4.18;;;0.80;;
22060;SDS011;11194;48.092;-1.382;2023-01-09T13:52:02;5.00;;;1.58;;
22060;SDS011;11194;48.092;-1.382;2023-01-09T13:55:21;6.68;;;1.92;;
22060;SDS011;11194;48.092;-1.382;2023-01-09T13:59:43;6.15;;;1.33;;
22060;SDS011;11194;48.092;-1.382;2023-01-09T14:04:55;4.03;;;1.02;;
22060;SDS011;11194;48.092;-1.382;2023-01-09T14:07:21;6.22;;;0.90;;
22060;SDS011;11194;48.092;-1.382;2023-01-09T14:09:49;3.63;;;1.10;;
22060;SDS011;11194;48.092;-1.382;2023-01-09T14:12:16;5.88;;;1.20;;
22060;SDS011;11194;48.092;-1.382;2023-01-09T14:14:44;2.35;;;0.90;;
22060;SDS011;11194;48.092;-1.382;2023-01-09T14:17:15;3.13;;;0.93;;
22060;SDS011;11194;48.092;-1.382;2023-01-09T14:19:41;5.63;;;1.52;;
22060;SDS011;11194;48.092;-1.382;2023-01-09T14:22:17;3.28;;;0.98;;
22060;SDS011;11194;48.092;-1.382;2023-01-09T14:24:48;3.05;;;1.08;;
22060;SDS011;11194;48.092;-1.382;2023-01-09T14:30:16;3.58;;;1.10;;
22060;SDS011;11194;48.092;-1.382;2023-01-09T14:32:43;5.78;;;1.58;;
22060;SDS011;11194;48.092;-1.382;2023-01-09T14:35:12;5.75;;;1.23;;
22060;SDS011;11194;48.092;-1.382;2023-01-09T14:37:38;6.00;;;1.27;;
22060;SDS011;11194;48.092;-1.382;2023-01-09T14:40:05;5.18;;;1.60;;
22060;SDS011;11194;48.092;-1.382;2023-01-09T14:42:32;6.15;;;1.67;;
22060;SDS011;11194;48.092;-1.382;2023-01-09T14:45:06;7.20;;;1.50;;
22060;SDS011;11194;48.092;-1.382;2023-01-09T14:47:40;7.60;;;1.50;;
22060;SDS011;11194;48.092;-1.382;2023-01-09T14:55:04;5.40;;;1.35;;
22060;SDS011;11194;48.092;-1.382;2023-01-09T14:57:32;5.00;;;1.42;;
22060;SDS011;11194;48.092;-1.382;2023-01-09T15:00:00;4.68;;;1.45;;
22060;SDS011;11194;48.092;-1.382;2023-01-09T15:02:28;5.40;;;1.10;;
22060;SDS011;11194;48.092;-1.382;2023-01-09T15:04:55;5.93;;;1.15;;
22060;SDS011;11194;48.092;-1.382;2023-01-09T15:07:23;3.45;;;1.20;;
22060;SDS011;11194;48.092;-1.382;2023-01-09T15:09:57;4.95;;;0.98;;
22060;SDS011;11194;48.092;-1.382;2023-01-09T15:12:24;4.55;;;1.35;;
22060;SDS011;11194;48.092;-1.382;2023-01-09T15:14:51;7.55;;;1.60;;
22060;SDS011;11194;48.092;-1.382;2023-01-09T15:17:19;6.07;;;1.40;;
22060;SDS011;11194;48.092;-1.382;2023-01-09T15:19:46;6.25;;;1.17;;
22060;SDS011;11194;48.092;-1.382;2023-01-09T15:22:20;5.35;;;1.13;;
22060;SDS011;11194;48.092;-1.382;2023-01-09T15:24:47;4.45;;;1.10;;
22060;SDS011;11194;48.092;-1.382;2023-01-09T15:27:14;5.88;;;1.20;;
22060;SDS011;11194;48.092;-1.382;2023-01-09T15:29:43;4.03;;;1.50;;
22060;SDS011;11194;48.092;-1.382;2023-01-09T15:32:30;3.92;;;1.10;;
22060;SDS011;11194;48.092;-1.382;2023-01-09T15:34:55;3.95;;;1.10;;
22060;SDS011;11194;48.092;-1.382;2023-01-09T15:37:29;4.70;;;1.08;;
22060;SDS011;11194;48.092;-1.382;2023-01-09T15:39:58;3.47;;;1.13;;
22060;SDS011;11194;48.092;-1.382;2023-01-09T15:42:25;3.03;;;1.02;;
22060;SDS011;11194;48.092;-1.382;2023-01-09T15:47:46;3.70;;;1.13;;
22060;SDS011;11194;48.092;-1.382;2023-01-09T15:50:13;7.60;;;1.40;;
22060;SDS011;11194;48.092;-1.382;2023-01-09T15:52:40;9.30;;;1.58;;
22060;SDS011;11194;48.092;-1.382;2023-01-09T15:57:51;5.95;;;1.35;;
22060;SDS011;11194;48.092;-1.382;2023-01-09T16:00:22;3.88;;;0.90;;
22060;SDS011;11194;48.092;-1.382;2023-01-09T16:02:48;5.20;;;1.48;;
22060;SDS011;11194;48.092;-1.382;2023-01-09T16:05:33;6.22;;;1.27;;
22060;SDS011;11194;48.092;-1.382;2023-01-09T16:08:03;7.90;;;1.65;;
22060;SDS011;11194;48.092;-1.382;2023-01-09T16:10:31;6.95;;;1.65;;
22060;SDS011;11194;48.092;-1.382;2023-01-09T16:12:59;6.97;;;1.30;;
22060;SDS011;11194;48.092;-1.382;2023-01-09T16:15:25;4.38;;;0.85;;
22060;SDS011;11194;48.092;-1.382;2023-01-09T16:20:36;3.63;;;1.48;;
22060;SDS011;11194;48.092;-1.382;2023-01-09T16:23:02;3.13;;;1.08;;
22060;SDS011;11194;48.092;-1.382;2023-01-09T16:30:55;4.05;;;0.98;;
22060;SDS011;11194;48.092;-1.382;2023-01-09T16:33:24;2.10;;;0.90;;
22060;SDS011;11194;48.092;-1.382;2023-01-09T16:35:50;3.45;;;1.00;;
22060;SDS011;11194;48.092;-1.382;2023-01-09T16:38:17;3.65;;;1.15;;
22060;SDS011;11194;48.092;-1.382;2023-01-09T16:43:47;2.53;;;0.82;;
22060;SDS011;11194;48.092;-1.382;2023-01-09T16:46:14;2.80;;;0.85;;
22060;SDS011;11194;48.092;-1.382;2023-01-09T16:48:40;3.47;;;1.00;;
22060;SDS011;11194;48.092;-1.382;2023-01-09T16:51:11;5.22;;;0.90;;
22060;SDS011;11194;48.092;-1.382;2023-01-09T16:53:38;3.97;;;1.10;;
22060;SDS011;11194;48.092;-1.382;2023-01-09T16:56:04;5.22;;;1.20;;
22060;SDS011;11194;48.092;-1.382;2023-01-09T16:58:32;3.10;;;1.33;;
22060;SDS011;11194;48.092;-1.382;2023-01-09T17:01:00;4.80;;;1.30;;
22060;SDS011;11194;48.092;-1.382;2023-01-09T17:03:26;5.78;;;1.17;;
22060;SDS011;11194;48.092;-1.382;2023-01-09T17:05:53;4.05;;;1.30;;
22060;SDS011;11194;48.092;-1.382;2023-01-09T17:08:27;6.38;;;1.38;;
22060;SDS011;11194;48.092;-1.382;2023-01-09T17:10:54;3.30;;;1.63;;
22060;SDS011;11194;48.092;-1.382;2023-01-09T17:13:20;5.93;;;1.55;;
22060;SDS011;11194;48.092;-1.382;2023-01-09T17:15:47;5.25;;;1.40;;